AVA9401 SKBO-SKPS
Flight info
| Callsign | AVA9401 |
|---|---|
| Flight time | 0h 49m |
| Altitude | 36000 |
| Route | VAPOM4R OREGA DCT MER |
| Aircraft | A320/M-SDE3FGHIRWY/LB1 |
Departure
| Time | 2026-04-22 15:45 |
|---|---|
| Airport | El Dorado International Airport (SKBO) |
Arrival
| Time | 2026-04-22 16:35 |
|---|---|
| Airport | Antonio Nariño Airport (SKPS) |
| Time | Latitude | Longitude | Altitude | Speed | Heading |
|---|---|---|---|---|---|
| 2026-04-22 14:43 | 4.69799 | -74.14554 | 8366 ft | 0 kts | 37° |
| 2026-04-22 15:32 | 4.69785 | -74.14564 | 8366 ft | 4 kts | 37° |
| 2026-04-22 15:32 | 4.69768 | -74.14577 | 8366 ft | 4 kts | 9° |
| 2026-04-22 15:33 | 4.69746 | -74.14570 | 8366 ft | 4 kts | 318° |
| 2026-04-22 15:33 | 4.69735 | -74.14559 | 8366 ft | 3 kts | 307° |
| 2026-04-22 15:33 | 4.69751 | -74.14580 | 8366 ft | 4 kts | 307° |
| 2026-04-22 15:33 | 4.69767 | -74.14602 | 8366 ft | 4 kts | 307° |
| 2026-04-22 15:34 | 4.69782 | -74.14622 | 8366 ft | 2 kts | 307° |
| 2026-04-22 15:34 | 4.69783 | -74.14623 | 8366 ft | 0 kts | 307° |
| 2026-04-22 15:37 | 4.69785 | -74.14626 | 8366 ft | 1 kts | 307° |
| 2026-04-22 15:38 | 4.69815 | -74.14666 | 8366 ft | 10 kts | 307° |
| 2026-04-22 15:38 | 4.69904 | -74.14773 | 8366 ft | 10 kts | 337° |
| 2026-04-22 15:38 | 4.69976 | -74.14741 | 8366 ft | 13 kts | 38° |
| 2026-04-22 15:39 | 4.70048 | -74.14688 | 8366 ft | 13 kts | 37° |
| 2026-04-22 15:39 | 4.70123 | -74.14630 | 8366 ft | 14 kts | 37° |
| 2026-04-22 15:39 | 4.70201 | -74.14571 | 8366 ft | 14 kts | 36° |
| 2026-04-22 15:39 | 4.70283 | -74.14511 | 8366 ft | 15 kts | 37° |
| 2026-04-22 15:40 | 4.70366 | -74.14448 | 8366 ft | 15 kts | 37° |
| 2026-04-22 15:40 | 4.70436 | -74.14395 | 8366 ft | 11 kts | 34° |
| 2026-04-22 15:40 | 4.70500 | -74.14423 | 8367 ft | 11 kts | 306° |
| 2026-04-22 15:40 | 4.70548 | -74.14488 | 8366 ft | 12 kts | 307° |
| 2026-04-22 15:41 | 4.70603 | -74.14560 | 8367 ft | 14 kts | 307° |
| 2026-04-22 15:41 | 4.70666 | -74.14643 | 8367 ft | 15 kts | 307° |
| 2026-04-22 15:41 | 4.70733 | -74.14732 | 8367 ft | 16 kts | 307° |
| 2026-04-22 15:41 | 4.70801 | -74.14821 | 8366 ft | 17 kts | 307° |
| 2026-04-22 15:42 | 4.70873 | -74.14916 | 8366 ft | 17 kts | 307° |
| 2026-04-22 15:42 | 4.70945 | -74.15012 | 8366 ft | 15 kts | 307° |
| 2026-04-22 15:42 | 4.71006 | -74.15094 | 8366 ft | 15 kts | 307° |
| 2026-04-22 15:42 | 4.71070 | -74.15178 | 8366 ft | 15 kts | 306° |
| 2026-04-22 15:43 | 4.71129 | -74.15258 | 8367 ft | 13 kts | 307° |
| 2026-04-22 15:43 | 4.71195 | -74.15302 | 8366 ft | 12 kts | 355° |
| 2026-04-22 15:43 | 4.71264 | -74.15263 | 8367 ft | 12 kts | 47° |
| 2026-04-22 15:43 | 4.71318 | -74.15198 | 8366 ft | 10 kts | 65° |
| 2026-04-22 15:44 | 4.71308 | -74.15164 | 8365 ft | 3 kts | 126° |
| 2026-04-22 15:44 | 4.71296 | -74.15148 | 8365 ft | 8 kts | 127° |
| 2026-04-22 15:44 | 4.71124 | -74.14921 | 8363 ft | 77 kts | 127° |
| 2026-04-22 15:44 | 4.70669 | -74.14319 | 8367 ft | 137 kts | 127° |
| 2026-04-22 15:45 | 4.69989 | -74.13419 | 8368 ft | 185 kts | 127° |
| 2026-04-22 15:45 | 4.69173 | -74.12332 | 8943 ft | 194 kts | 126° |
| 2026-04-22 15:45 | 4.68323 | -74.11292 | 9705 ft | 196 kts | 141° |
| 2026-04-22 15:45 | 4.67017 | -74.10830 | 10044 ft | 210 kts | 186° |
| 2026-04-22 15:46 | 4.65689 | -74.11441 | 10360 ft | 219 kts | 229° |
| 2026-04-22 15:46 | 4.64914 | -74.12795 | 10595 ft | 233 kts | 247° |
| 2026-04-22 15:46 | 4.64294 | -74.14341 | 10917 ft | 241 kts | 249° |
| 2026-04-22 15:46 | 4.63673 | -74.15925 | 11318 ft | 247 kts | 248° |
| 2026-04-22 15:47 | 4.63004 | -74.17524 | 11888 ft | 250 kts | 246° |
| 2026-04-22 15:47 | 4.62291 | -74.19118 | 12554 ft | 251 kts | 244° |
| 2026-04-22 15:47 | 4.61578 | -74.20724 | 13200 ft | 253 kts | 252° |
| 2026-04-22 15:47 | 4.61190 | -74.22505 | 13505 ft | 273 kts | 258° |
| 2026-04-22 15:48 | 4.60826 | -74.24446 | 13668 ft | 296 kts | 259° |
| 2026-04-22 15:48 | 4.60434 | -74.26517 | 13811 ft | 318 kts | 257° |
| 2026-04-22 15:48 | 4.59628 | -74.28652 | 13908 ft | 339 kts | 241° |
| 2026-04-22 15:48 | 4.58499 | -74.30783 | 14255 ft | 351 kts | 241° |
| 2026-04-22 15:49 | 4.57371 | -74.32972 | 14775 ft | 355 kts | 242° |
| 2026-04-22 15:49 | 4.56243 | -74.35185 | 15324 ft | 358 kts | 242° |
| 2026-04-22 15:49 | 4.55111 | -74.37418 | 15855 ft | 361 kts | 243° |
| 2026-04-22 15:49 | 4.53968 | -74.39671 | 16401 ft | 364 kts | 242° |
| 2026-04-22 15:50 | 4.52811 | -74.41945 | 16948 ft | 367 kts | 242° |
| 2026-04-22 15:50 | 4.51646 | -74.44226 | 17488 ft | 370 kts | 242° |
| 2026-04-22 15:50 | 4.50466 | -74.46530 | 18043 ft | 373 kts | 242° |
| 2026-04-22 15:50 | 4.49277 | -74.48850 | 18570 ft | 376 kts | 242° |
| 2026-04-22 15:51 | 4.48075 | -74.51192 | 19003 ft | 379 kts | 242° |
| 2026-04-22 15:51 | 4.46868 | -74.53547 | 19480 ft | 381 kts | 242° |
| 2026-04-22 15:51 | 4.45653 | -74.55919 | 19890 ft | 384 kts | 242° |
| 2026-04-22 15:51 | 4.44436 | -74.58300 | 20007 ft | 384 kts | 242° |
| 2026-04-22 15:52 | 4.43219 | -74.60685 | 20023 ft | 384 kts | 242° |
| 2026-04-22 15:52 | 4.42003 | -74.63065 | 20023 ft | 384 kts | 242° |
| 2026-04-22 15:52 | 4.40785 | -74.65444 | 20004 ft | 384 kts | 242° |
| 2026-04-22 15:52 | 4.39566 | -74.67819 | 20003 ft | 383 kts | 242° |
| 2026-04-22 15:53 | 4.38347 | -74.70193 | 20006 ft | 383 kts | 242° |
| 2026-04-22 15:53 | 4.37124 | -74.72568 | 20002 ft | 383 kts | 242° |
| 2026-04-22 15:53 | 4.35902 | -74.74936 | 20001 ft | 383 kts | 242° |
| 2026-04-22 15:53 | 4.34679 | -74.77309 | 20006 ft | 383 kts | 242° |
| 2026-04-22 15:54 | 4.33457 | -74.79683 | 20002 ft | 383 kts | 242° |
| 2026-04-22 15:54 | 4.32235 | -74.82054 | 20002 ft | 383 kts | 242° |
| 2026-04-22 15:54 | 4.31012 | -74.84426 | 20002 ft | 383 kts | 242° |
| 2026-04-22 15:54 | 4.30201 | -74.85997 | 20002 ft | 383 kts | 242° |
| 2026-04-22 15:55 | 4.28977 | -74.88370 | 20002 ft | 383 kts | 242° |
| 2026-04-22 15:55 | 4.27755 | -74.90741 | 20003 ft | 383 kts | 242° |
| 2026-04-22 15:55 | 4.26533 | -74.93113 | 20002 ft | 383 kts | 242° |
| 2026-04-22 15:55 | 4.25312 | -74.95484 | 20002 ft | 383 kts | 242° |
| 2026-04-22 15:56 | 4.24090 | -74.97857 | 19998 ft | 383 kts | 242° |
| 2026-04-22 15:56 | 4.22866 | -75.00228 | 20049 ft | 383 kts | 242° |
| 2026-04-22 15:56 | 4.21640 | -75.02605 | 19995 ft | 383 kts | 242° |
| 2026-04-22 15:56 | 4.20335 | -75.04929 | 19993 ft | 383 kts | 235° |
| 2026-04-22 15:57 | 4.18732 | -75.07076 | 20372 ft | 387 kts | 233° |
| 2026-04-22 15:57 | 4.17110 | -75.09230 | 20874 ft | 389 kts | 233° |
| 2026-04-22 15:57 | 4.15485 | -75.11403 | 21342 ft | 391 kts | 233° |
| 2026-04-22 15:57 | 4.13849 | -75.13600 | 21788 ft | 394 kts | 233° |
| 2026-04-22 15:58 | 4.12211 | -75.15804 | 22210 ft | 396 kts | 233° |
| 2026-04-22 15:58 | 4.10560 | -75.18022 | 22645 ft | 399 kts | 233° |
| 2026-04-22 15:58 | 4.08895 | -75.20251 | 23096 ft | 401 kts | 233° |
| 2026-04-22 15:58 | 4.07214 | -75.22494 | 23569 ft | 404 kts | 233° |
| 2026-04-22 15:59 | 4.05520 | -75.24753 | 23908 ft | 406 kts | 233° |
| 2026-04-22 15:59 | 4.03822 | -75.27023 | 24254 ft | 409 kts | 233° |
| 2026-04-22 15:59 | 4.02115 | -75.29307 | 24584 ft | 411 kts | 233° |
| 2026-04-22 15:59 | 4.00390 | -75.31610 | 24910 ft | 414 kts | 233° |
| 2026-04-22 16:00 | 3.98657 | -75.33921 | 25230 ft | 417 kts | 233° |
| 2026-04-22 16:00 | 3.96912 | -75.36249 | 25583 ft | 419 kts | 233° |
| 2026-04-22 16:00 | 3.95159 | -75.38592 | 25917 ft | 421 kts | 233° |
| 2026-04-22 16:00 | 3.93395 | -75.40950 | 26243 ft | 424 kts | 233° |
| 2026-04-22 16:01 | 3.91623 | -75.43314 | 26567 ft | 426 kts | 233° |
| 2026-04-22 16:01 | 3.89835 | -75.45700 | 26872 ft | 429 kts | 233° |
| 2026-04-22 16:01 | 3.88037 | -75.48092 | 27182 ft | 432 kts | 232° |
| 2026-04-22 16:01 | 3.86028 | -75.50278 | 27550 ft | 434 kts | 222° |
| 2026-04-22 16:02 | 3.83688 | -75.52189 | 27826 ft | 436 kts | 218° |
| 2026-04-22 16:02 | 3.81298 | -75.54079 | 28136 ft | 439 kts | 218° |
| 2026-04-22 16:02 | 3.78904 | -75.55985 | 28440 ft | 441 kts | 218° |
| 2026-04-22 16:02 | 3.76501 | -75.57905 | 28747 ft | 443 kts | 218° |
| 2026-04-22 16:03 | 3.74088 | -75.59837 | 29033 ft | 446 kts | 218° |
| 2026-04-22 16:03 | 3.71659 | -75.61782 | 29331 ft | 448 kts | 218° |
| 2026-04-22 16:03 | 3.69213 | -75.63738 | 29612 ft | 451 kts | 218° |
| 2026-04-22 16:03 | 3.66753 | -75.65699 | 29903 ft | 454 kts | 218° |
| 2026-04-22 16:04 | 3.64265 | -75.67680 | 30132 ft | 458 kts | 218° |
| 2026-04-22 16:04 | 3.61766 | -75.69672 | 30369 ft | 460 kts | 218° |
| 2026-04-22 16:04 | 3.59250 | -75.71677 | 30597 ft | 463 kts | 218° |
| 2026-04-22 16:04 | 3.56732 | -75.73681 | 30822 ft | 464 kts | 218° |
| 2026-04-22 16:05 | 3.54195 | -75.75701 | 31070 ft | 466 kts | 218° |
| 2026-04-22 16:05 | 3.51656 | -75.77727 | 31308 ft | 468 kts | 218° |
| 2026-04-22 16:05 | 3.49111 | -75.79759 | 31629 ft | 468 kts | 217° |
| 2026-04-22 16:05 | 3.46568 | -75.81789 | 31964 ft | 467 kts | 217° |
| 2026-04-22 16:06 | 3.44026 | -75.83814 | 32304 ft | 466 kts | 217° |
| 2026-04-22 16:06 | 3.41491 | -75.85831 | 32652 ft | 466 kts | 217° |
| 2026-04-22 16:06 | 3.38952 | -75.87852 | 32984 ft | 465 kts | 217° |
| 2026-04-22 16:06 | 3.36431 | -75.89859 | 33331 ft | 464 kts | 217° |
| 2026-04-22 16:07 | 3.33906 | -75.91870 | 33684 ft | 463 kts | 217° |
| 2026-04-22 16:07 | 3.31386 | -75.93879 | 34033 ft | 463 kts | 217° |
| 2026-04-22 16:07 | 3.28861 | -75.95891 | 34157 ft | 463 kts | 217° |
| 2026-04-22 16:07 | 3.26343 | -75.97898 | 34178 ft | 463 kts | 216° |
| 2026-04-22 16:08 | 3.21309 | -76.01906 | 34168 ft | 463 kts | 216° |
| 2026-04-22 16:08 | 3.16264 | -76.05917 | 34171 ft | 462 kts | 216° |
| 2026-04-22 16:09 | 3.11268 | -76.09899 | 34153 ft | 462 kts | 217° |
| 2026-04-22 16:09 | 3.06241 | -76.13906 | 34152 ft | 462 kts | 216° |
| 2026-04-22 16:10 | 3.01219 | -76.17905 | 34155 ft | 461 kts | 217° |
| 2026-04-22 16:10 | 2.96202 | -76.21897 | 34128 ft | 461 kts | 217° |
| 2026-04-22 16:11 | 2.91188 | -76.25882 | 34128 ft | 460 kts | 217° |
| 2026-04-22 16:11 | 2.86172 | -76.29864 | 34128 ft | 460 kts | 216° |
| 2026-04-22 16:12 | 2.81165 | -76.33848 | 34136 ft | 460 kts | 217° |
| 2026-04-22 16:12 | 2.76163 | -76.37835 | 34119 ft | 460 kts | 217° |
| 2026-04-22 16:13 | 2.71162 | -76.41818 | 33841 ft | 458 kts | 217° |
| 2026-04-22 16:13 | 2.68663 | -76.43802 | 33161 ft | 457 kts | 217° |
| 2026-04-22 16:13 | 2.66193 | -76.45762 | 32323 ft | 450 kts | 217° |
| 2026-04-22 16:14 | 2.63752 | -76.47700 | 31423 ft | 445 kts | 217° |
| 2026-04-22 16:14 | 2.61341 | -76.49614 | 30573 ft | 440 kts | 217° |
| 2026-04-22 16:14 | 2.58958 | -76.51508 | 29653 ft | 434 kts | 217° |
| 2026-04-22 16:14 | 2.56618 | -76.53370 | 28847 ft | 426 kts | 218° |
| 2026-04-22 16:15 | 2.54349 | -76.55176 | 28482 ft | 407 kts | 218° |
| 2026-04-22 16:15 | 2.52177 | -76.56904 | 28058 ft | 391 kts | 218° |
| 2026-04-22 16:15 | 2.50088 | -76.58565 | 27634 ft | 377 kts | 218° |
| 2026-04-22 16:15 | 2.48073 | -76.60165 | 27209 ft | 364 kts | 218° |
| 2026-04-22 16:16 | 2.46115 | -76.61717 | 26799 ft | 353 kts | 218° |
| 2026-04-22 16:16 | 2.44206 | -76.63233 | 26391 ft | 350 kts | 219° |
| 2026-04-22 16:16 | 2.42312 | -76.64742 | 25973 ft | 347 kts | 219° |
| 2026-04-22 16:16 | 2.40427 | -76.66241 | 25565 ft | 346 kts | 219° |
| 2026-04-22 16:17 | 2.38546 | -76.67738 | 25120 ft | 346 kts | 219° |
| 2026-04-22 16:17 | 2.36662 | -76.69239 | 24677 ft | 346 kts | 219° |
| 2026-04-22 16:17 | 2.34778 | -76.70739 | 24225 ft | 346 kts | 219° |
| 2026-04-22 16:17 | 2.32896 | -76.72237 | 23764 ft | 347 kts | 219° |
| 2026-04-22 16:18 | 2.31028 | -76.73720 | 23262 ft | 346 kts | 219° |
| 2026-04-22 16:18 | 2.29122 | -76.75232 | 22803 ft | 345 kts | 219° |
| 2026-04-22 16:18 | 2.27271 | -76.76701 | 22365 ft | 343 kts | 219° |
| 2026-04-22 16:18 | 2.25382 | -76.78205 | 21917 ft | 342 kts | 219° |
| 2026-04-22 16:19 | 2.23546 | -76.79664 | 21461 ft | 341 kts | 219° |
| 2026-04-22 16:19 | 2.21688 | -76.81141 | 21026 ft | 340 kts | 219° |
| 2026-04-22 16:19 | 2.19836 | -76.82610 | 20594 ft | 340 kts | 219° |
| 2026-04-22 16:19 | 2.17989 | -76.84074 | 20159 ft | 339 kts | 219° |
| 2026-04-22 16:20 | 2.16147 | -76.85536 | 19740 ft | 338 kts | 219° |
| 2026-04-22 16:20 | 2.14306 | -76.87001 | 19318 ft | 338 kts | 219° |
| 2026-04-22 16:20 | 2.12472 | -76.88461 | 18916 ft | 337 kts | 218° |
| 2026-04-22 16:20 | 2.10634 | -76.89923 | 18501 ft | 337 kts | 218° |
| 2026-04-22 16:21 | 2.08801 | -76.91379 | 18049 ft | 337 kts | 218° |
| 2026-04-22 16:21 | 2.06964 | -76.92837 | 17642 ft | 335 kts | 218° |
| 2026-04-22 16:21 | 2.05143 | -76.94283 | 17217 ft | 334 kts | 218° |
| 2026-04-22 16:21 | 2.03329 | -76.95726 | 16820 ft | 333 kts | 218° |
| 2026-04-22 16:22 | 1.99719 | -76.98597 | 16030 ft | 331 kts | 219° |
| 2026-04-22 16:22 | 1.97917 | -77.00027 | 15645 ft | 330 kts | 219° |
| 2026-04-22 16:22 | 1.96116 | -77.01456 | 15256 ft | 330 kts | 219° |
| 2026-04-22 16:23 | 1.92532 | -77.04301 | 14489 ft | 329 kts | 219° |
| 2026-04-22 16:23 | 1.90740 | -77.05721 | 14095 ft | 329 kts | 219° |
| 2026-04-22 16:23 | 1.88945 | -77.07143 | 13679 ft | 329 kts | 219° |
| 2026-04-22 16:24 | 1.87152 | -77.08565 | 13258 ft | 328 kts | 219° |
| 2026-04-22 16:24 | 1.83604 | -77.11387 | 12460 ft | 325 kts | 219° |
| 2026-04-22 16:24 | 1.81852 | -77.12781 | 12253 ft | 317 kts | 219° |
| 2026-04-22 16:25 | 1.80152 | -77.14131 | 12127 ft | 307 kts | 219° |
| 2026-04-22 16:25 | 1.76681 | -77.16313 | 12050 ft | 283 kts | 209° |
| 2026-04-22 16:25 | 1.74956 | -77.17237 | 11810 ft | 279 kts | 209° |
| 2026-04-22 16:26 | 1.73249 | -77.18150 | 11651 ft | 277 kts | 209° |
| 2026-04-22 16:26 | 1.71552 | -77.19057 | 11532 ft | 277 kts | 209° |
| 2026-04-22 16:26 | 1.69846 | -77.19972 | 11221 ft | 279 kts | 209° |
| 2026-04-22 16:26 | 1.68158 | -77.20879 | 11006 ft | 275 kts | 209° |
| 2026-04-22 16:27 | 1.66473 | -77.21783 | 10863 ft | 275 kts | 209° |
| 2026-04-22 16:27 | 1.64783 | -77.22688 | 10743 ft | 276 kts | 209° |
| 2026-04-22 16:27 | 1.63093 | -77.23591 | 10609 ft | 274 kts | 209° |
| 2026-04-22 16:27 | 1.61417 | -77.24488 | 10483 ft | 272 kts | 210° |
| 2026-04-22 16:28 | 1.59751 | -77.25377 | 10351 ft | 272 kts | 209° |
| 2026-04-22 16:28 | 1.58085 | -77.26266 | 10230 ft | 271 kts | 208° |
| 2026-04-22 16:28 | 1.56422 | -77.27156 | 10100 ft | 271 kts | 209° |
| 2026-04-22 16:28 | 1.54763 | -77.28045 | 9973 ft | 271 kts | 209° |
| 2026-04-22 16:29 | 1.53102 | -77.28934 | 9841 ft | 270 kts | 209° |
| 2026-04-22 16:29 | 1.51426 | -77.29816 | 9381 ft | 277 kts | 208° |
| 2026-04-22 16:29 | 1.49724 | -77.30674 | 9075 ft | 268 kts | 207° |
| 2026-04-22 16:29 | 1.48081 | -77.31488 | 8948 ft | 263 kts | 207° |
| 2026-04-22 16:30 | 1.46998 | -77.32024 | 8856 ft | 262 kts | 207° |
| 2026-04-22 16:30 | 1.44859 | -77.33081 | 8706 ft | 249 kts | 207° |
| 2026-04-22 16:30 | 1.43364 | -77.33823 | 8640 ft | 229 kts | 207° |
| 2026-04-22 16:30 | 1.41973 | -77.34517 | 8655 ft | 219 kts | 207° |
| 2026-04-22 16:31 | 1.40630 | -77.35189 | 8666 ft | 214 kts | 207° |
| 2026-04-22 16:31 | 1.39334 | -77.35838 | 8816 ft | 197 kts | 207° |
| 2026-04-22 16:31 | 1.38164 | -77.36372 | 8800 ft | 177 kts | 198° |
| 2026-04-22 16:31 | 1.36977 | -77.36508 | 8575 ft | 169 kts | 174° |
| 2026-04-22 16:32 | 1.35870 | -77.36198 | 8302 ft | 165 kts | 155° |
| 2026-04-22 16:32 | 1.34922 | -77.35560 | 8005 ft | 165 kts | 135° |
| 2026-04-22 16:32 | 1.34285 | -77.34645 | 7739 ft | 162 kts | 114° |
| 2026-04-22 16:32 | 1.33971 | -77.33577 | 7491 ft | 160 kts | 94° |
| 2026-04-22 16:33 | 1.34006 | -77.32460 | 7257 ft | 159 kts | 80° |
| 2026-04-22 16:33 | 1.34390 | -77.31453 | 7043 ft | 156 kts | 51° |
| 2026-04-22 16:33 | 1.35125 | -77.30692 | 6778 ft | 153 kts | 38° |
| 2026-04-22 16:33 | 1.36000 | -77.30085 | 6640 ft | 154 kts | 23° |
| 2026-04-22 16:34 | 1.37017 | -77.29793 | 6357 ft | 151 kts | 13° |
| 2026-04-22 16:34 | 1.38036 | -77.29527 | 6111 ft | 152 kts | 14° |
| 2026-04-22 16:34 | 1.39051 | -77.29259 | 5939 ft | 147 kts | 12° |
| 2026-04-22 16:34 | 1.39857 | -77.29045 | 5894 ft | 80 kts | 15° |
| 2026-04-22 16:35 | 1.40132 | -77.28971 | 5879 ft | 21 kts | 14° |
| 2026-04-22 16:35 | 1.40281 | -77.28933 | 5881 ft | 24 kts | 14° |
| 2026-04-22 16:35 | 1.40442 | -77.28890 | 5872 ft | 20 kts | 15° |
| 2026-04-22 16:35 | 1.40562 | -77.28858 | 5862 ft | 15 kts | 9° |
| 2026-04-22 16:36 | 1.40620 | -77.28849 | 5852 ft | 3 kts | 129° |
| 2026-04-22 16:36 | 1.40580 | -77.28852 | 5869 ft | 10 kts | 196° |
| 2026-04-22 16:36 | 1.40526 | -77.28867 | 5857 ft | 10 kts | 195° |
| 2026-04-22 16:36 | 1.40395 | -77.28903 | 5869 ft | 23 kts | 194° |
| 2026-04-22 16:37 | 1.40250 | -77.28941 | 5877 ft | 20 kts | 194° |
| 2026-04-22 16:37 | 1.40125 | -77.28974 | 5879 ft | 17 kts | 194° |
| 2026-04-22 16:37 | 1.40022 | -77.29001 | 5887 ft | 13 kts | 195° |
| 2026-04-22 16:37 | 1.39942 | -77.29023 | 5889 ft | 14 kts | 195° |
| 2026-04-22 16:38 | 1.39851 | -77.29046 | 5894 ft | 11 kts | 194° |
| 2026-04-22 16:38 | 1.39796 | -77.29061 | 5897 ft | 5 kts | 195° |
| 2026-04-22 16:38 | 1.39721 | -77.29081 | 5904 ft | 16 kts | 195° |
| 2026-04-22 16:38 | 1.39675 | -77.29076 | 5903 ft | 4 kts | 126° |
| 2026-04-22 16:39 | 1.39668 | -77.29049 | 5903 ft | 5 kts | 101° |
| 2026-04-22 16:39 | 1.39661 | -77.29030 | 5905 ft | 0 kts | 122° |
| 2026-04-22 16:39 | 1.39654 | -77.29025 | 5906 ft | 5 kts | 144° |
| 2026-04-22 16:39 | 1.39639 | -77.29022 | 5907 ft | 0 kts | 175° |
| 2026-04-22 16:40 | 1.39620 | -77.29024 | 5907 ft | 11 kts | 194° |
| 2026-04-22 16:40 | 1.39589 | -77.29029 | 5908 ft | 1 kts | 163° |
| 2026-04-22 16:40 | 1.39576 | -77.28998 | 5908 ft | 2 kts | 104° |
| 2026-04-22 16:41 | 1.39574 | -77.28992 | 5908 ft | 0 kts | 104° |